sensor_id;sensor_type;location;lat;lon;timestamp;temperature;humidity
28524;DHT22;15734;50.904;6.922;2022-07-18T00:00:32;16.30;99.90
28524;DHT22;15734;50.904;6.922;2022-07-18T00:02:58;16.30;99.90
28524;DHT22;15734;50.904;6.922;2022-07-18T00:05:24;16.30;99.90
28524;DHT22;15734;50.904;6.922;2022-07-18T00:07:49;16.30;99.90
28524;DHT22;15734;50.904;6.922;2022-07-18T00:10:15;16.30;99.90
28524;DHT22;15734;50.904;6.922;2022-07-18T00:12:41;16.40;99.90
28524;DHT22;15734;50.904;6.922;2022-07-18T00:15:07;16.40;99.90
28524;DHT22;15734;50.904;6.922;2022-07-18T00:17:33;16.40;99.90
28524;DHT22;15734;50.904;6.922;2022-07-18T00:19:59;16.30;99.90
28524;DHT22;15734;50.904;6.922;2022-07-18T00:22:24;16.30;99.90
28524;DHT22;15734;50.904;6.922;2022-07-18T00:24:50;16.20;99.90
28524;DHT22;15734;50.904;6.922;2022-07-18T00:27:15;16.20;99.90
28524;DHT22;15734;50.904;6.922;2022-07-18T00:29:41;16.20;99.90
28524;DHT22;15734;50.904;6.922;2022-07-18T00:32:08;16.20;99.90
28524;DHT22;15734;50.904;6.922;2022-07-18T00:34:34;16.10;99.90
28524;DHT22;15734;50.904;6.922;2022-07-18T00:37:00;16.10;99.90
28524;DHT22;15734;50.904;6.922;2022-07-18T00:39:26;16.20;99.90
28524;DHT22;15734;50.904;6.922;2022-07-18T00:41:52;16.20;99.90
28524;DHT22;15734;50.904;6.922;2022-07-18T00:44:19;16.20;99.90
28524;DHT22;15734;50.904;6.922;2022-07-18T00:46:45;16.30;99.90
28524;DHT22;15734;50.904;6.922;2022-07-18T00:49:11;16.40;99.90
28524;DHT22;15734;50.904;6.922;2022-07-18T00:51:37;16.40;99.90
28524;DHT22;15734;50.904;6.922;2022-07-18T00:54:04;16.40;99.90
28524;DHT22;15734;50.904;6.922;2022-07-18T00:56:29;16.40;99.90
28524;DHT22;15734;50.904;6.922;2022-07-18T00:58:55;16.40;99.90
28524;DHT22;15734;50.904;6.922;2022-07-18T01:01:21;16.40;99.90
28524;DHT22;15734;50.904;6.922;2022-07-18T01:04:05;16.30;99.90
28524;DHT22;15734;50.904;6.922;2022-07-18T01:06:30;16.20;99.90
28524;DHT22;15734;50.904;6.922;2022-07-18T01:08:57;16.10;99.90
28524;DHT22;15734;50.904;6.922;2022-07-18T01:11:23;16.00;99.90
28524;DHT22;15734;50.904;6.922;2022-07-18T01:13:49;15.90;99.90
28524;DHT22;15734;50.904;6.922;2022-07-18T01:16:16;15.80;99.90
28524;DHT22;15734;50.904;6.922;2022-07-18T01:18:49;15.80;99.90
28524;DHT22;15734;50.904;6.922;2022-07-18T01:21:15;15.80;99.90
28524;DHT22;15734;50.904;6.922;2022-07-18T01:23:42;15.80;99.90
28524;DHT22;15734;50.904;6.922;2022-07-18T01:26:08;15.80;99.90
28524;DHT22;15734;50.904;6.922;2022-07-18T01:28:34;15.70;99.90
28524;DHT22;15734;50.904;6.922;2022-07-18T01:30:59;15.70;99.90
28524;DHT22;15734;50.904;6.922;2022-07-18T01:33:25;15.70;99.90
28524;DHT22;15734;50.904;6.922;2022-07-18T01:35:51;15.70;99.90
28524;DHT22;15734;50.904;6.922;2022-07-18T01:38:16;15.60;99.90
28524;DHT22;15734;50.904;6.922;2022-07-18T01:40:45;15.60;99.90
28524;DHT22;15734;50.904;6.922;2022-07-18T01:43:10;15.60;99.90
28524;DHT22;15734;50.904;6.922;2022-07-18T01:45:36;15.60;99.90
28524;DHT22;15734;50.904;6.922;2022-07-18T01:48:02;15.60;99.90
28524;DHT22;15734;50.904;6.922;2022-07-18T01:50:28;15.60;99.90
28524;DHT22;15734;50.904;6.922;2022-07-18T01:52:53;15.70;99.90
28524;DHT22;15734;50.904;6.922;2022-07-18T01:55:19;15.60;99.90
28524;DHT22;15734;50.904;6.922;2022-07-18T01:57:44;15.60;99.90
28524;DHT22;15734;50.904;6.922;2022-07-18T02:00:11;15.60;99.90
28524;DHT22;15734;50.904;6.922;2022-07-18T02:02:37;15.60;99.90
28524;DHT22;15734;50.904;6.922;2022-07-18T02:05:05;15.50;99.90
28524;DHT22;15734;50.904;6.922;2022-07-18T02:07:37;15.50;99.90
28524;DHT22;15734;50.904;6.922;2022-07-18T02:10:12;15.50;99.90
28524;DHT22;15734;50.904;6.922;2022-07-18T02:12:38;15.50;99.90
28524;DHT22;15734;50.904;6.922;2022-07-18T02:15:04;15.50;99.90
28524;DHT22;15734;50.904;6.922;2022-07-18T02:17:31;15.60;99.90
28524;DHT22;15734;50.904;6.922;2022-07-18T02:19:56;15.50;99.90
28524;DHT22;15734;50.904;6.922;2022-07-18T02:22:22;15.50;99.90
28524;DHT22;15734;50.904;6.922;2022-07-18T02:24:48;15.50;99.90
28524;DHT22;15734;50.904;6.922;2022-07-18T02:27:14;15.40;99.90
28524;DHT22;15734;50.904;6.922;2022-07-18T02:29:39;15.40;99.90
28524;DHT22;15734;50.904;6.922;2022-07-18T02:32:05;15.40;99.90
28524;DHT22;15734;50.904;6.922;2022-07-18T02:34:31;15.40;99.90
28524;DHT22;15734;50.904;6.922;2022-07-18T02:36:56;15.40;99.90
28524;DHT22;15734;50.904;6.922;2022-07-18T02:39:22;15.30;99.90
28524;DHT22;15734;50.904;6.922;2022-07-18T02:41:48;15.30;99.90
28524;DHT22;15734;50.904;6.922;2022-07-18T02:44:13;15.30;99.90
28524;DHT22;15734;50.904;6.922;2022-07-18T02:46:40;15.20;99.90
28524;DHT22;15734;50.904;6.922;2022-07-18T02:49:05;15.10;99.90
28524;DHT22;15734;50.904;6.922;2022-07-18T02:51:31;15.00;99.90
28524;DHT22;15734;50.904;6.922;2022-07-18T02:53:57;14.90;99.90
28524;DHT22;15734;50.904;6.922;2022-07-18T02:56:23;14.90;99.90
28524;DHT22;15734;50.904;6.922;2022-07-18T02:58:48;14.80;99.90
28524;DHT22;15734;50.904;6.922;2022-07-18T03:01:14;14.80;99.90
28524;DHT22;15734;50.904;6.922;2022-07-18T03:03:39;14.80;99.90
28524;DHT22;15734;50.904;6.922;2022-07-18T03:06:05;14.80;99.90
28524;DHT22;15734;50.904;6.922;2022-07-18T03:08:30;14.80;99.90
28524;DHT22;15734;50.904;6.922;2022-07-18T03:10:56;14.80;99.90
28524;DHT22;15734;50.904;6.922;2022-07-18T03:13:21;14.70;99.90
28524;DHT22;15734;50.904;6.922;2022-07-18T03:15:47;14.70;99.90
28524;DHT22;15734;50.904;6.922;2022-07-18T03:18:13;14.70;99.90
28524;DHT22;15734;50.904;6.922;2022-07-18T03:20:38;14.70;99.90
28524;DHT22;15734;50.904;6.922;2022-07-18T03:23:07;14.70;99.90
28524;DHT22;15734;50.904;6.922;2022-07-18T03:25:33;14.60;99.90
28524;DHT22;15734;50.904;6.922;2022-07-18T03:27:59;14.50;99.90
28524;DHT22;15734;50.904;6.922;2022-07-18T03:30:25;14.50;99.90
28524;DHT22;15734;50.904;6.922;2022-07-18T03:32:50;14.50;99.90
28524;DHT22;15734;50.904;6.922;2022-07-18T03:35:16;14.50;99.90
28524;DHT22;15734;50.904;6.922;2022-07-18T03:37:41;14.40;99.90
28524;DHT22;15734;50.904;6.922;2022-07-18T03:40:08;14.30;99.90
28524;DHT22;15734;50.904;6.922;2022-07-18T03:42:37;14.30;99.90
28524;DHT22;15734;50.904;6.922;2022-07-18T03:45:03;14.30;99.90
28524;DHT22;15734;50.904;6.922;2022-07-18T03:47:29;14.20;99.90
28524;DHT22;15734;50.904;6.922;2022-07-18T03:49:54;14.20;99.90
28524;DHT22;15734;50.904;6.922;2022-07-18T03:52:19;14.20;99.90
28524;DHT22;15734;50.904;6.922;2022-07-18T03:54:46;14.10;99.90
28524;DHT22;15734;50.904;6.922;2022-07-18T03:57:11;14.10;99.90
28524;DHT22;15734;50.904;6.922;2022-07-18T03:59:37;14.10;99.90
28524;DHT22;15734;50.904;6.922;2022-07-18T04:02:02;14.10;99.90
28524;DHT22;15734;50.904;6.922;2022-07-18T04:04:28;14.10;99.90
28524;DHT22;15734;50.904;6.922;2022-07-18T04:06:53;14.10;99.90
28524;DHT22;15734;50.904;6.922;2022-07-18T04:09:19;14.20;99.90
28524;DHT22;15734;50.904;6.922;2022-07-18T04:11:44;14.20;99.90
28524;DHT22;15734;50.904;6.922;2022-07-18T04:14:10;14.30;99.90
28524;DHT22;15734;50.904;6.922;2022-07-18T04:16:36;14.30;99.90
28524;DHT22;15734;50.904;6.922;2022-07-18T04:19:02;14.30;99.90
28524;DHT22;15734;50.904;6.922;2022-07-18T04:21:27;14.40;99.90
28524;DHT22;15734;50.904;6.922;2022-07-18T04:23:53;14.40;99.90
28524;DHT22;15734;50.904;6.922;2022-07-18T04:26:19;14.50;99.90
28524;DHT22;15734;50.904;6.922;2022-07-18T04:28:44;14.50;99.90
28524;DHT22;15734;50.904;6.922;2022-07-18T04:31:10;14.50;99.90
28524;DHT22;15734;50.904;6.922;2022-07-18T04:33:35;14.50;99.90
28524;DHT22;15734;50.904;6.922;2022-07-18T04:36:01;14.50;99.90
28524;DHT22;15734;50.904;6.922;2022-07-18T04:38:27;14.50;99.90
28524;DHT22;15734;50.904;6.922;2022-07-18T04:40:54;14.60;99.90
28524;DHT22;15734;50.904;6.922;2022-07-18T04:43:19;14.60;99.90
28524;DHT22;15734;50.904;6.922;2022-07-18T04:45:45;14.70;99.90
28524;DHT22;15734;50.904;6.922;2022-07-18T04:48:10;14.80;99.90
28524;DHT22;15734;50.904;6.922;2022-07-18T04:50:36;14.70;99.90
28524;DHT22;15734;50.904;6.922;2022-07-18T04:53:02;14.90;99.90
28524;DHT22;15734;50.904;6.922;2022-07-18T04:55:28;14.90;99.90
28524;DHT22;15734;50.904;6.922;2022-07-18T04:57:54;15.00;99.90
28524;DHT22;15734;50.904;6.922;2022-07-18T05:00:22;15.00;99.90
28524;DHT22;15734;50.904;6.922;2022-07-18T05:02:50;15.10;99.90
28524;DHT22;15734;50.904;6.922;2022-07-18T05:05:18;15.10;99.90
28524;DHT22;15734;50.904;6.922;2022-07-18T05:07:45;15.20;99.90
28524;DHT22;15734;50.904;6.922;2022-07-18T05:10:13;15.30;99.90
28524;DHT22;15734;50.904;6.922;2022-07-18T05:12:40;15.30;99.90
28524;DHT22;15734;50.904;6.922;2022-07-18T05:15:08;15.40;99.90
28524;DHT22;15734;50.904;6.922;2022-07-18T05:17:35;15.50;99.90
28524;DHT22;15734;50.904;6.922;2022-07-18T05:20:01;15.60;99.90
28524;DHT22;15734;50.904;6.922;2022-07-18T05:22:27;15.60;99.90
28524;DHT22;15734;50.904;6.922;2022-07-18T05:24:52;15.70;99.90
28524;DHT22;15734;50.904;6.922;2022-07-18T05:27:18;15.80;99.90
28524;DHT22;15734;50.904;6.922;2022-07-18T05:29:43;15.90;99.90
28524;DHT22;15734;50.904;6.922;2022-07-18T05:32:09;16.00;99.90
28524;DHT22;15734;50.904;6.922;2022-07-18T05:34:36;16.00;99.90
28524;DHT22;15734;50.904;6.922;2022-07-18T05:37:02;16.20;99.90
28524;DHT22;15734;50.904;6.922;2022-07-18T05:39:28;16.30;99.90
28524;DHT22;15734;50.904;6.922;2022-07-18T05:41:53;16.40;99.90
28524;DHT22;15734;50.904;6.922;2022-07-18T05:44:19;16.50;99.90
28524;DHT22;15734;50.904;6.922;2022-07-18T05:46:46;16.60;99.90
28524;DHT22;15734;50.904;6.922;2022-07-18T05:49:12;16.70;99.90
28524;DHT22;15734;50.904;6.922;2022-07-18T05:51:38;16.80;99.90
28524;DHT22;15734;50.904;6.922;2022-07-18T05:54:03;16.80;99.90
28524;DHT22;15734;50.904;6.922;2022-07-18T05:56:29;16.90;99.90
28524;DHT22;15734;50.904;6.922;2022-07-18T05:58:55;17.00;99.90
28524;DHT22;15734;50.904;6.922;2022-07-18T06:01:20;17.10;99.90
28524;DHT22;15734;50.904;6.922;2022-07-18T06:03:49;17.20;99.90
28524;DHT22;15734;50.904;6.922;2022-07-18T06:06:15;17.30;99.90
28524;DHT22;15734;50.904;6.922;2022-07-18T06:08:41;17.40;99.90
28524;DHT22;15734;50.904;6.922;2022-07-18T06:11:07;17.40;99.90
28524;DHT22;15734;50.904;6.922;2022-07-18T06:13:35;17.60;99.90
28524;DHT22;15734;50.904;6.922;2022-07-18T06:16:00;17.60;99.90
28524;DHT22;15734;50.904;6.922;2022-07-18T06:18:26;17.80;99.90
28524;DHT22;15734;50.904;6.922;2022-07-18T06:20:51;17.80;99.90
28524;DHT22;15734;50.904;6.922;2022-07-18T06:23:17;17.90;99.90
28524;DHT22;15734;50.904;6.922;2022-07-18T06:25:42;18.00;99.90
28524;DHT22;15734;50.904;6.922;2022-07-18T06:28:08;18.10;99.90
28524;DHT22;15734;50.904;6.922;2022-07-18T06:30:33;18.20;99.90
28524;DHT22;15734;50.904;6.922;2022-07-18T06:33:00;18.30;99.90
28524;DHT22;15734;50.904;6.922;2022-07-18T06:35:28;18.40;99.90
28524;DHT22;15734;50.904;6.922;2022-07-18T06:37:54;18.50;99.90
28524;DHT22;15734;50.904;6.922;2022-07-18T06:40:20;18.60;99.90
28524;DHT22;15734;50.904;6.922;2022-07-18T06:42:45;18.60;99.90
28524;DHT22;15734;50.904;6.922;2022-07-18T06:45:11;18.70;99.90
28524;DHT22;15734;50.904;6.922;2022-07-18T06:47:36;18.70;99.90
28524;DHT22;15734;50.904;6.922;2022-07-18T06:50:02;18.90;99.90
28524;DHT22;15734;50.904;6.922;2022-07-18T06:52:28;19.00;99.90
28524;DHT22;15734;50.904;6.922;2022-07-18T06:54:53;19.10;99.90
28524;DHT22;15734;50.904;6.922;2022-07-18T06:57:19;19.30;99.90
28524;DHT22;15734;50.904;6.922;2022-07-18T06:59:45;19.40;99.90
28524;DHT22;15734;50.904;6.922;2022-07-18T07:02:11;19.40;99.90
28524;DHT22;15734;50.904;6.922;2022-07-18T07:04:36;19.60;99.90
28524;DHT22;15734;50.904;6.922;2022-07-18T07:07:02;19.70;99.90
28524;DHT22;15734;50.904;6.922;2022-07-18T07:09:27;19.80;99.90
28524;DHT22;15734;50.904;6.922;2022-07-18T07:11:53;20.00;99.90
28524;DHT22;15734;50.904;6.922;2022-07-18T07:14:18;20.10;99.90
28524;DHT22;15734;50.904;6.922;2022-07-18T07:16:44;20.10;99.90
28524;DHT22;15734;50.904;6.922;2022-07-18T07:19:09;20.20;99.90
28524;DHT22;15734;50.904;6.922;2022-07-18T07:21:35;20.30;99.90
28524;DHT22;15734;50.904;6.922;2022-07-18T07:24:01;20.50;99.90
28524;DHT22;15734;50.904;6.922;2022-07-18T07:26:26;20.50;99.90
28524;DHT22;15734;50.904;6.922;2022-07-18T07:28:52;20.60;99.90
28524;DHT22;15734;50.904;6.922;2022-07-18T07:31:18;20.70;99.90
28524;DHT22;15734;50.904;6.922;2022-07-18T07:33:43;20.80;99.90
28524;DHT22;15734;50.904;6.922;2022-07-18T07:36:10;21.00;99.90
28524;DHT22;15734;50.904;6.922;2022-07-18T07:38:36;21.10;99.90
28524;DHT22;15734;50.904;6.922;2022-07-18T07:41:02;21.20;99.90
28524;DHT22;15734;50.904;6.922;2022-07-18T07:43:28;21.30;99.90
28524;DHT22;15734;50.904;6.922;2022-07-18T07:45:53;21.40;99.90
28524;DHT22;15734;50.904;6.922;2022-07-18T07:48:21;21.50;99.90
28524;DHT22;15734;50.904;6.922;2022-07-18T07:50:47;21.50;99.90
28524;DHT22;15734;50.904;6.922;2022-07-18T07:53:12;21.60;99.90
28524;DHT22;15734;50.904;6.922;2022-07-18T07:55:38;21.80;99.90
28524;DHT22;15734;50.904;6.922;2022-07-18T07:58:04;21.90;99.90
28524;DHT22;15734;50.904;6.922;2022-07-18T08:00:31;22.00;99.90
28524;DHT22;15734;50.904;6.922;2022-07-18T08:03:07;22.00;99.90
28524;DHT22;15734;50.904;6.922;2022-07-18T08:05:35;22.20;99.90
28524;DHT22;15734;50.904;6.922;2022-07-18T08:08:03;22.30;99.90
28524;DHT22;15734;50.904;6.922;2022-07-18T08:10:30;22.40;99.90
28524;DHT22;15734;50.904;6.922;2022-07-18T08:12:56;22.50;99.90
28524;DHT22;15734;50.904;6.922;2022-07-18T08:15:22;22.50;99.90
28524;DHT22;15734;50.904;6.922;2022-07-18T08:17:47;22.60;99.90
28524;DHT22;15734;50.904;6.922;2022-07-18T08:20:14;22.60;99.90
28524;DHT22;15734;50.904;6.922;2022-07-18T08:23:03;22.80;99.90
28524;DHT22;15734;50.904;6.922;2022-07-18T08:25:30;22.90;99.90
28524;DHT22;15734;50.904;6.922;2022-07-18T08:27:57;23.10;99.90
28524;DHT22;15734;50.904;6.922;2022-07-18T08:30:23;23.20;99.90
28524;DHT22;15734;50.904;6.922;2022-07-18T08:32:49;23.30;99.90
28524;DHT22;15734;50.904;6.922;2022-07-18T08:35:15;23.50;99.90
28524;DHT22;15734;50.904;6.922;2022-07-18T08:37:41;23.60;99.90
28524;DHT22;15734;50.904;6.922;2022-07-18T08:40:07;23.70;99.90
28524;DHT22;15734;50.904;6.922;2022-07-18T08:42:33;23.90;99.90
28524;DHT22;15734;50.904;6.922;2022-07-18T08:45:00;24.00;99.90
28524;DHT22;15734;50.904;6.922;2022-07-18T08:47:28;24.10;99.90
28524;DHT22;15734;50.904;6.922;2022-07-18T08:49:54;24.20;99.90
28524;DHT22;15734;50.904;6.922;2022-07-18T08:52:20;24.40;99.90
28524;DHT22;15734;50.904;6.922;2022-07-18T08:54:46;24.60;99.90
28524;DHT22;15734;50.904;6.922;2022-07-18T08:57:15;24.70;99.90
28524;DHT22;15734;50.904;6.922;2022-07-18T08:59:40;24.90;99.90
28524;DHT22;15734;50.904;6.922;2022-07-18T09:02:10;24.90;99.90
28524;DHT22;15734;50.904;6.922;2022-07-18T09:04:37;25.00;99.90
28524;DHT22;15734;50.904;6.922;2022-07-18T09:07:04;25.10;99.90
28524;DHT22;15734;50.904;6.922;2022-07-18T09:09:30;25.20;99.90
28524;DHT22;15734;50.904;6.922;2022-07-18T09:12:01;25.40;99.90
28524;DHT22;15734;50.904;6.922;2022-07-18T09:14:42;25.50;99.90
28524;DHT22;15734;50.904;6.922;2022-07-18T09:17:23;25.80;99.90
28524;DHT22;15734;50.904;6.922;2022-07-18T09:22:32;26.10;99.90
28524;DHT22;15734;50.904;6.922;2022-07-18T09:25:08;26.20;99.90
28524;DHT22;15734;50.904;6.922;2022-07-18T09:27:40;26.40;99.90
28524;DHT22;15734;50.904;6.922;2022-07-18T09:30:17;26.50;99.90
28524;DHT22;15734;50.904;6.922;2022-07-18T09:35:28;26.90;99.90
28524;DHT22;15734;50.904;6.922;2022-07-18T09:38:07;27.10;99.90
28524;DHT22;15734;50.904;6.922;2022-07-18T09:40:44;27.30;99.90
28524;DHT22;15734;50.904;6.922;2022-07-18T09:43:13;27.40;99.90
28524;DHT22;15734;50.904;6.922;2022-07-18T09:48:16;27.70;99.90
28524;DHT22;15734;50.904;6.922;2022-07-18T09:55:55;28.20;99.90
28524;DHT22;15734;50.904;6.922;2022-07-18T09:58:41;28.40;99.80
28524;DHT22;15734;50.904;6.922;2022-07-18T10:01:09;28.60;98.80
28524;DHT22;15734;50.904;6.922;2022-07-18T10:03:35;28.70;97.00
28524;DHT22;15734;50.904;6.922;2022-07-18T10:06:02;28.80;96.70
28524;DHT22;15734;50.904;6.922;2022-07-18T10:08:30;28.90;95.90
28524;DHT22;15734;50.904;6.922;2022-07-18T10:10:58;29.00;96.00
28524;DHT22;15734;50.904;6.922;2022-07-18T10:13:29;29.00;95.10
28524;DHT22;15734;50.904;6.922;2022-07-18T10:15:55;29.20;95.30
28524;DHT22;15734;50.904;6.922;2022-07-18T10:18:24;29.60;95.70
28524;DHT22;15734;50.904;6.922;2022-07-18T10:20:58;29.90;95.90
28524;DHT22;15734;50.904;6.922;2022-07-18T10:24:00;30.00;92.00
28524;DHT22;15734;50.904;6.922;2022-07-18T10:26:27;30.00;90.80
28524;DHT22;15734;50.904;6.922;2022-07-18T10:31:32;30.20;90.00
28524;DHT22;15734;50.904;6.922;2022-07-18T10:39:07;31.10;87.40
28524;DHT22;15734;50.904;6.922;2022-07-18T11:00:31;31.50;79.20
28524;DHT22;15734;50.904;6.922;2022-07-18T11:03:09;31.50;78.90
28524;DHT22;15734;50.904;6.922;2022-07-18T11:05:44;31.60;76.50
28524;DHT22;15734;50.904;6.922;2022-07-18T11:21:30;32.20;78.30
28524;DHT22;15734;50.904;6.922;2022-07-18T11:26:30;32.70;73.10
28524;DHT22;15734;50.904;6.922;2022-07-18T11:29:03;32.50;73.30
28524;DHT22;15734;50.904;6.922;2022-07-18T11:31:29;32.20;72.00
28524;DHT22;15734;50.904;6.922;2022-07-18T11:33:56;32.20;71.30
28524;DHT22;15734;50.904;6.922;2022-07-18T11:36:29;32.30;72.30
28524;DHT22;15734;50.904;6.922;2022-07-18T11:39:01;32.20;71.60
28524;DHT22;15734;50.904;6.922;2022-07-18T11:41:27;32.30;71.90
28524;DHT22;15734;50.904;6.922;2022-07-18T11:43:54;32.50;73.50
28524;DHT22;15734;50.904;6.922;2022-07-18T11:46:21;32.70;69.60
28524;DHT22;15734;50.904;6.922;2022-07-18T11:49:04;32.80;69.70
28524;DHT22;15734;50.904;6.922;2022-07-18T11:51:35;33.20;69.50
28524;DHT22;15734;50.904;6.922;2022-07-18T11:54:01;33.40;79.70
28524;DHT22;15734;50.904;6.922;2022-07-18T11:56:27;33.80;70.00
28524;DHT22;15734;50.904;6.922;2022-07-18T11:58:53;33.80;69.60
28524;DHT22;15734;50.904;6.922;2022-07-18T12:01:19;33.90;67.90
28524;DHT22;15734;50.904;6.922;2022-07-18T12:03:47;34.40;71.80
28524;DHT22;15734;50.904;6.922;2022-07-18T12:06:21;34.00;72.60
28524;DHT22;15734;50.904;6.922;2022-07-18T12:08:47;33.90;66.00
28524;DHT22;15734;50.904;6.922;2022-07-18T12:11:33;33.60;67.40
28524;DHT22;15734;50.904;6.922;2022-07-18T12:16:35;34.40;69.30
28524;DHT22;15734;50.904;6.922;2022-07-18T12:19:19;34.20;68.90
28524;DHT22;15734;50.904;6.922;2022-07-18T12:27:11;35.10;66.00
28524;DHT22;15734;50.904;6.922;2022-07-18T12:32:39;35.60;65.70
28524;DHT22;15734;50.904;6.922;2022-07-18T12:37:35;34.90;74.60
28524;DHT22;15734;50.904;6.922;2022-07-18T12:40:07;35.20;68.00
28524;DHT22;15734;50.904;6.922;2022-07-18T12:42:38;35.50;62.60
28524;DHT22;15734;50.904;6.922;2022-07-18T12:45:05;35.30;59.30
28524;DHT22;15734;50.904;6.922;2022-07-18T12:47:32;34.70;59.20
28524;DHT22;15734;50.904;6.922;2022-07-18T12:49:57;34.80;60.00
28524;DHT22;15734;50.904;6.922;2022-07-18T12:52:23;35.10;60.40
28524;DHT22;15734;50.904;6.922;2022-07-18T12:54:49;35.20;61.80
28524;DHT22;15734;50.904;6.922;2022-07-18T12:57:16;35.30;59.20
28524;DHT22;15734;50.904;6.922;2022-07-18T12:59:42;34.80;66.40
28524;DHT22;15734;50.904;6.922;2022-07-18T13:02:07;34.80;63.60
28524;DHT22;15734;50.904;6.922;2022-07-18T13:04:33;35.30;60.60
28524;DHT22;15734;50.904;6.922;2022-07-18T13:06:58;35.40;59.40
28524;DHT22;15734;50.904;6.922;2022-07-18T13:09:24;35.30;63.00
28524;DHT22;15734;50.904;6.922;2022-07-18T13:11:50;35.70;58.90
28524;DHT22;15734;50.904;6.922;2022-07-18T13:14:16;36.00;61.80
28524;DHT22;15734;50.904;6.922;2022-07-18T13:16:43;36.20;63.60
28524;DHT22;15734;50.904;6.922;2022-07-18T13:19:11;35.90;61.10
28524;DHT22;15734;50.904;6.922;2022-07-18T13:21:36;35.50;63.40
28524;DHT22;15734;50.904;6.922;2022-07-18T13:24:02;35.70;59.10
28524;DHT22;15734;50.904;6.922;2022-07-18T13:26:27;35.90;59.40
28524;DHT22;15734;50.904;6.922;2022-07-18T13:28:54;36.30;56.90
28524;DHT22;15734;50.904;6.922;2022-07-18T13:31:19;36.50;56.40
28524;DHT22;15734;50.904;6.922;2022-07-18T13:33:45;36.40;56.30
28524;DHT22;15734;50.904;6.922;2022-07-18T13:36:13;36.30;56.00
28524;DHT22;15734;50.904;6.922;2022-07-18T13:38:40;36.10;59.50
28524;DHT22;15734;50.904;6.922;2022-07-18T13:41:09;36.50;57.40
28524;DHT22;15734;50.904;6.922;2022-07-18T13:43:36;36.80;55.60
28524;DHT22;15734;50.904;6.922;2022-07-18T13:46:12;36.50;56.10
28524;DHT22;15734;50.904;6.922;2022-07-18T13:48:38;36.60;54.90
28524;DHT22;15734;50.904;6.922;2022-07-18T13:51:05;36.40;54.80
28524;DHT22;15734;50.904;6.922;2022-07-18T13:53:32;36.40;56.40
28524;DHT22;15734;50.904;6.922;2022-07-18T13:55:58;36.60;55.20
28524;DHT22;15734;50.904;6.922;2022-07-18T13:58:24;36.30;54.20
28524;DHT22;15734;50.904;6.922;2022-07-18T14:00:49;36.20;54.70
28524;DHT22;15734;50.904;6.922;2022-07-18T14:03:16;36.30;55.70
28524;DHT22;15734;50.904;6.922;2022-07-18T14:05:42;36.40;54.80
28524;DHT22;15734;50.904;6.922;2022-07-18T14:08:08;36.40;56.90
28524;DHT22;15734;50.904;6.922;2022-07-18T14:10:35;36.10;57.10
28524;DHT22;15734;50.904;6.922;2022-07-18T14:13:01;35.90;57.20
28524;DHT22;15734;50.904;6.922;2022-07-18T14:15:27;35.70;55.00
28524;DHT22;15734;50.904;6.922;2022-07-18T14:17:53;36.30;56.20
28524;DHT22;15734;50.904;6.922;2022-07-18T14:20:18;36.80;55.20
28524;DHT22;15734;50.904;6.922;2022-07-18T14:22:46;37.00;55.20
28524;DHT22;15734;50.904;6.922;2022-07-18T14:25:14;37.00;53.90
28524;DHT22;15734;50.904;6.922;2022-07-18T14:27:40;37.20;54.10
28524;DHT22;15734;50.904;6.922;2022-07-18T14:30:07;37.30;54.20
28524;DHT22;15734;50.904;6.922;2022-07-18T14:32:33;37.10;55.20
28524;DHT22;15734;50.904;6.922;2022-07-18T14:34:59;37.00;56.10
28524;DHT22;15734;50.904;6.922;2022-07-18T14:37:25;37.10;52.90
28524;DHT22;15734;50.904;6.922;2022-07-18T14:39:50;36.90;52.80
28524;DHT22;15734;50.904;6.922;2022-07-18T14:42:16;36.90;53.30
28524;DHT22;15734;50.904;6.922;2022-07-18T14:44:42;36.70;52.30
28524;DHT22;15734;50.904;6.922;2022-07-18T14:47:07;36.70;52.20
28524;DHT22;15734;50.904;6.922;2022-07-18T14:49:33;36.70;53.60
28524;DHT22;15734;50.904;6.922;2022-07-18T14:51:58;37.00;52.90
28524;DHT22;15734;50.904;6.922;2022-07-18T14:54:28;37.00;52.30
28524;DHT22;15734;50.904;6.922;2022-07-18T14:56:53;37.00;52.50
28524;DHT22;15734;50.904;6.922;2022-07-18T14:59:20;36.90;51.70
28524;DHT22;15734;50.904;6.922;2022-07-18T15:01:46;36.90;51.90
28524;DHT22;15734;50.904;6.922;2022-07-18T15:04:12;37.00;51.80
28524;DHT22;15734;50.904;6.922;2022-07-18T15:06:37;36.90;52.50
28524;DHT22;15734;50.904;6.922;2022-07-18T15:09:03;36.90;52.10
28524;DHT22;15734;50.904;6.922;2022-07-18T15:11:29;37.10;54.70
28524;DHT22;15734;50.904;6.922;2022-07-18T15:13:56;37.20;51.40
28524;DHT22;15734;50.904;6.922;2022-07-18T15:16:21;37.00;51.70
28524;DHT22;15734;50.904;6.922;2022-07-18T15:18:47;37.10;51.60
28524;DHT22;15734;50.904;6.922;2022-07-18T15:21:13;37.30;53.30
28524;DHT22;15734;50.904;6.922;2022-07-18T15:23:38;37.20;52.40
28524;DHT22;15734;50.904;6.922;2022-07-18T15:26:04;37.10;50.80
28524;DHT22;15734;50.904;6.922;2022-07-18T15:28:29;36.70;54.60
28524;DHT22;15734;50.904;6.922;2022-07-18T15:30:55;36.10;55.80
28524;DHT22;15734;50.904;6.922;2022-07-18T15:33:20;35.80;58.50
28524;DHT22;15734;50.904;6.922;2022-07-18T15:35:47;36.00;53.20
28524;DHT22;15734;50.904;6.922;2022-07-18T15:38:12;36.50;51.30
28524;DHT22;15734;50.904;6.922;2022-07-18T15:40:38;36.50;53.30
28524;DHT22;15734;50.904;6.922;2022-07-18T15:43:04;36.20;55.50
28524;DHT22;15734;50.904;6.922;2022-07-18T15:45:29;36.20;53.90
28524;DHT22;15734;50.904;6.922;2022-07-18T15:47:56;36.10;54.90
28524;DHT22;15734;50.904;6.922;2022-07-18T15:50:21;36.40;54.80
28524;DHT22;15734;50.904;6.922;2022-07-18T15:52:47;36.80;56.20
28524;DHT22;15734;50.904;6.922;2022-07-18T15:55:13;36.60;53.40
28524;DHT22;15734;50.904;6.922;2022-07-18T15:57:38;37.00;52.50
28524;DHT22;15734;50.904;6.922;2022-07-18T16:00:05;37.30;50.90
28524;DHT22;15734;50.904;6.922;2022-07-18T16:02:31;37.70;50.50
28524;DHT22;15734;50.904;6.922;2022-07-18T16:04:57;37.80;50.20
28524;DHT22;15734;50.904;6.922;2022-07-18T16:07:23;37.50;49.60
28524;DHT22;15734;50.904;6.922;2022-07-18T16:09:49;37.30;50.40
28524;DHT22;15734;50.904;6.922;2022-07-18T16:12:14;37.00;51.80
28524;DHT22;15734;50.904;6.922;2022-07-18T16:14:40;37.00;54.00
28524;DHT22;15734;50.904;6.922;2022-07-18T16:17:06;37.10;50.20
28524;DHT22;15734;50.904;6.922;2022-07-18T16:19:32;37.40;49.50
28524;DHT22;15734;50.904;6.922;2022-07-18T16:21:57;37.60;49.70
28524;DHT22;15734;50.904;6.922;2022-07-18T16:24:24;37.90;49.40
28524;DHT22;15734;50.904;6.922;2022-07-18T16:26:49;37.90;48.90
28524;DHT22;15734;50.904;6.922;2022-07-18T16:29:15;37.70;49.40
28524;DHT22;15734;50.904;6.922;2022-07-18T16:31:41;38.00;49.20
28524;DHT22;15734;50.904;6.922;2022-07-18T16:34:06;38.00;49.70
28524;DHT22;15734;50.904;6.922;2022-07-18T16:36:32;37.50;49.40